createdAt,value
2018-05-13T00:01:45.299Z,13.67
2018-05-13T00:04:12.849Z,13.93
2018-05-13T00:06:40.509Z,14.27
2018-05-13T00:09:08.185Z,14.10
2018-05-13T00:11:36.248Z,14.97
2018-05-13T00:14:03.800Z,14.43
2018-05-13T00:16:32.596Z,14.20
2018-05-13T00:19:00.861Z,15.17
2018-05-13T00:21:28.989Z,14.90
2018-05-13T00:23:57.284Z,15.97
2018-05-13T00:26:24.894Z,15.23
2018-05-13T00:28:52.424Z,15.73
2018-05-13T00:31:20.015Z,14.90
2018-05-13T00:33:47.560Z,15.27
2018-05-13T00:36:15.277Z,15.10
2018-05-13T00:38:43.007Z,15.47
2018-05-13T00:41:10.571Z,15.60
2018-05-13T00:43:38.518Z,15.93
2018-05-13T00:46:06.403Z,15.83
2018-05-13T00:48:33.989Z,16.00
2018-05-13T00:51:02.676Z,16.10
2018-05-13T00:53:30.654Z,16.03
2018-05-13T00:55:58.214Z,16.40
2018-05-13T00:58:25.748Z,16.53
2018-05-13T01:00:53.374Z,16.23
2018-05-13T01:03:21.032Z,17.10
2018-05-13T01:05:48.580Z,16.33
2018-05-13T01:08:16.860Z,17.93
2018-05-13T01:10:45.487Z,17.20
2018-05-13T01:13:13.306Z,17.33
2018-05-13T01:15:41.592Z,17.50
2018-05-13T01:18:09.863Z,17.20
2018-05-13T01:20:37.409Z,17.13
2018-05-13T01:23:04.940Z,17.67
2018-05-13T01:25:32.578Z,16.90
2018-05-13T01:28:00.114Z,17.80
2018-05-13T01:30:27.842Z,17.40
2018-05-13T01:32:56.556Z,17.63
2018-05-13T01:35:25.659Z,18.47
2018-05-13T01:37:53.794Z,18.40
2018-05-13T01:40:21.331Z,18.27
2018-05-13T01:42:49.192Z,17.93
2018-05-13T01:45:17.290Z,19.13
2018-05-13T01:47:45.022Z,19.57
2018-05-13T01:50:13.260Z,17.90
2018-05-13T01:52:41.783Z,19.60
2018-05-13T01:55:09.370Z,18.23
2018-05-13T01:57:36.923Z,19.90
2018-05-13T02:00:04.689Z,20.10
2018-05-13T02:02:32.471Z,19.47
2018-05-13T02:04:59.988Z,20.80
2018-05-13T02:07:27.570Z,20.60
2018-05-13T02:09:55.119Z,19.47
2018-05-13T02:12:22.638Z,19.70
2018-05-13T02:14:51.269Z,20.40
2018-05-13T02:17:18.816Z,20.43
2018-05-13T02:19:46.330Z,20.67
2018-05-13T02:22:14.300Z,20.20
2018-05-13T02:24:42.727Z,20.53
2018-05-13T02:27:10.275Z,22.10
2018-05-13T02:29:37.845Z,21.40
2018-05-13T02:32:05.425Z,21.10
2018-05-13T02:34:33.711Z,22.30
2018-05-13T02:37:01.246Z,22.80
2018-05-13T02:39:28.811Z,22.87
2018-05-13T02:41:56.335Z,23.33
2018-05-13T02:44:24.750Z,23.07
2018-05-13T02:46:52.619Z,23.07
2018-05-13T02:49:20.766Z,22.07
2018-05-13T02:51:48.342Z,23.53
2018-05-13T02:54:15.873Z,23.83
2018-05-13T02:56:43.910Z,24.17
2018-05-13T02:59:11.430Z,24.40
2018-05-13T03:01:39.021Z,25.23
2018-05-13T03:04:06.545Z,25.83
2018-05-13T03:06:34.090Z,25.00
2018-05-13T03:09:02.169Z,24.90
2018-05-13T03:11:29.731Z,25.30
2018-05-13T03:13:57.290Z,25.53
2018-05-13T03:16:25.483Z,25.80
2018-05-13T03:18:53.058Z,26.07
2018-05-13T03:21:20.833Z,25.87
2018-05-13T03:23:48.388Z,27.23
2018-05-13T03:26:15.904Z,26.07
2018-05-13T03:28:43.483Z,26.27
2018-05-13T03:31:11.214Z,27.37
2018-05-13T03:33:39.542Z,27.50
2018-05-13T03:36:07.212Z,28.07
2018-05-13T03:38:34.888Z,26.53
2018-05-13T03:41:02.406Z,28.67
2018-05-13T03:43:29.980Z,27.33
2018-05-13T03:45:57.496Z,26.67
2018-05-13T03:48:26.546Z,27.10
2018-05-13T03:50:54.212Z,26.87
2018-05-13T03:53:21.696Z,27.80
2018-05-13T03:55:49.269Z,27.67
2018-05-13T03:58:17.559Z,26.17
2018-05-13T04:00:45.982Z,25.67
2018-05-13T04:03:14.650Z,26.73
2018-05-13T04:05:42.240Z,27.13
2018-05-13T04:11:33.080Z,24.47
2018-05-13T04:14:12.406Z,22.23
2018-05-13T04:16:40.088Z,21.57
2018-05-13T04:19:07.625Z,23.07
2018-05-13T04:21:35.360Z,22.70
2018-05-13T04:24:03.842Z,20.43
2018-05-13T04:26:31.513Z,21.63
2018-05-13T04:28:59.095Z,21.87
2018-05-13T04:31:26.754Z,22.23
2018-05-13T04:33:55.068Z,22.37
2018-05-13T04:36:22.588Z,21.47
2018-05-13T04:38:50.130Z,21.53
2018-05-13T04:41:17.640Z,22.30
2018-05-13T04:43:45.222Z,20.60
2018-05-13T04:46:13.493Z,21.83
2018-05-13T04:48:41.788Z,20.63
2018-05-13T04:51:09.637Z,20.33
2018-05-13T04:53:37.998Z,21.77
2018-05-13T04:56:05.561Z,21.40
2018-05-13T04:58:34.102Z,20.93
2018-05-13T05:01:01.635Z,19.83
2018-05-13T05:03:29.266Z,21.25
2018-05-13T05:05:57.586Z,19.90
2018-05-13T05:08:25.092Z,20.67
2018-05-13T05:10:52.604Z,20.40
2018-05-13T05:13:21.314Z,19.25
2018-05-13T05:15:49.190Z,20.10
2018-05-13T05:18:16.718Z,19.73
2018-05-13T05:20:44.360Z,18.98
2018-05-13T05:23:11.890Z,19.85
2018-05-13T05:25:39.551Z,20.12
2018-05-13T05:28:07.878Z,20.33
2018-05-13T05:30:35.418Z,19.58
2018-05-13T05:33:03.824Z,19.30
2018-05-13T05:35:31.476Z,19.73
2018-05-13T05:37:59.060Z,18.52
2018-05-13T05:40:26.840Z,18.80
2018-05-13T05:42:55.087Z,17.25
2018-05-13T05:45:23.544Z,18.45
2018-05-13T05:47:51.199Z,17.00
2018-05-13T05:50:18.749Z,18.73
2018-05-13T05:52:47.115Z,18.67
2018-05-13T05:55:15.133Z,18.27
2018-05-13T05:57:42.663Z,17.15
2018-05-13T06:00:10.974Z,17.23
2018-05-13T06:02:38.647Z,17.60
2018-05-13T06:05:06.371Z,16.23
2018-05-13T06:07:35.179Z,16.90
2018-05-13T06:10:03.473Z,16.42
2018-05-13T06:12:30.984Z,17.00
2018-05-13T06:14:58.521Z,17.33
2018-05-13T06:17:26.175Z,17.15
2018-05-13T06:19:53.668Z,16.48
2018-05-13T06:22:21.985Z,15.70
2018-05-13T06:24:54.315Z,15.75
2018-05-13T06:27:21.845Z,15.05
2018-05-13T06:29:49.395Z,15.23
2018-05-13T06:32:16.931Z,15.25
2018-05-13T06:34:44.843Z,16.20
2018-05-13T06:37:12.461Z,15.68
2018-05-13T06:39:40.149Z,14.70
2018-05-13T06:42:07.911Z,15.73
2018-05-13T06:44:35.631Z,13.98
2018-05-13T06:47:03.179Z,14.52
2018-05-13T06:49:30.900Z,14.30
2018-05-13T06:51:59.209Z,14.20
2018-05-13T06:54:26.751Z,13.38
2018-05-13T06:56:54.269Z,14.10
2018-05-13T06:59:22.680Z,13.45
2018-05-13T07:01:50.269Z,13.90
2018-05-13T07:04:17.836Z,12.70
2018-05-13T07:06:45.962Z,13.10
2018-05-13T07:09:13.481Z,13.05
2018-05-13T07:11:41.795Z,13.35
2018-05-13T07:14:09.324Z,13.10
2018-05-13T07:16:36.892Z,13.15
2018-05-13T07:19:05.398Z,12.20
2018-05-13T07:21:33.616Z,11.27
2018-05-13T07:24:02.443Z,11.82
2018-05-13T07:26:30.045Z,12.15
2018-05-13T07:28:57.573Z,12.00
2018-05-13T07:31:25.175Z,11.23
2018-05-13T07:33:52.776Z,11.85
2018-05-13T07:36:20.350Z,11.75
2018-05-13T07:38:47.926Z,11.27
2018-05-13T07:41:15.472Z,10.82
2018-05-13T07:43:43.162Z,10.77
2018-05-13T07:46:11.105Z,10.50
2018-05-13T07:48:38.691Z,9.98
2018-05-13T07:51:06.459Z,9.70
2018-05-13T07:53:34.083Z,9.48
2018-05-13T07:56:02.340Z,9.82
2018-05-13T07:58:30.669Z,9.40
2018-05-13T08:00:58.532Z,8.70
2018-05-13T08:03:26.081Z,9.30
2018-05-13T08:05:53.726Z,9.00
2018-05-13T08:08:21.838Z,9.52
2018-05-13T08:10:49.524Z,8.70
2018-05-13T08:13:17.952Z,9.52
2018-05-13T08:15:45.660Z,9.50
2018-05-13T08:18:13.702Z,9.60
2018-05-13T08:20:41.980Z,8.80
2018-05-13T08:23:09.535Z,9.57
2018-05-13T08:25:37.065Z,8.88
2018-05-13T08:28:05.591Z,8.90
2018-05-13T08:30:33.120Z,9.27
2018-05-13T08:33:01.384Z,8.90
2018-05-13T08:35:29.804Z,8.40
2018-05-13T08:37:57.361Z,8.10
2018-05-13T08:40:24.908Z,8.50
2018-05-13T08:42:52.429Z,8.38
2018-05-13T08:45:20.134Z,8.35
2018-05-13T08:47:47.662Z,7.70
2018-05-13T08:50:16.113Z,7.80
2018-05-13T08:52:43.716Z,7.22
2018-05-13T08:55:11.231Z,7.43
2018-05-13T08:57:38.795Z,7.03
2018-05-13T09:00:06.649Z,5.78
2018-05-13T09:02:34.225Z,5.47
2018-05-13T09:05:01.730Z,6.05
2018-05-13T09:07:29.750Z,5.65
2018-05-13T09:09:57.370Z,6.40
2018-05-13T09:12:25.037Z,5.65
2018-05-13T09:14:52.666Z,6.00
2018-05-13T09:17:21.048Z,5.80
2018-05-13T09:19:49.322Z,5.18
2018-05-13T09:22:17.252Z,5.47
2018-05-13T09:24:45.057Z,5.30
2018-05-13T09:27:13.266Z,4.87
2018-05-13T09:29:41.003Z,5.30
2018-05-13T09:32:09.623Z,5.30
2018-05-13T09:34:37.395Z,5.00
2018-05-13T09:37:05.035Z,5.70
2018-05-13T09:39:32.729Z,5.10
2018-05-13T09:42:01.129Z,5.40
2018-05-13T09:44:28.906Z,5.40
2018-05-13T09:46:57.379Z,4.83
2018-05-13T09:49:24.955Z,5.03
2018-05-13T09:51:53.323Z,5.10
2018-05-13T09:54:21.033Z,5.47
2018-05-13T09:56:48.609Z,4.93
2018-05-13T09:59:16.157Z,3.77
2018-05-13T10:01:44.551Z,4.70
2018-05-13T10:04:12.220Z,4.30
2018-05-13T10:06:39.883Z,4.70
2018-05-13T10:09:07.482Z,4.20
2018-05-13T10:11:35.787Z,4.20
2018-05-13T10:14:04.237Z,4.83
2018-05-13T10:16:32.044Z,4.93
2018-05-13T10:18:59.586Z,4.10
2018-05-13T10:21:27.252Z,4.80
2018-05-13T10:23:57.559Z,4.80
2018-05-13T10:26:25.130Z,5.03
2018-05-13T10:28:52.782Z,4.87
2018-05-13T10:31:20.416Z,4.20
2018-05-13T10:33:48.127Z,3.70
2018-05-13T10:36:15.990Z,4.20
2018-05-13T10:38:43.453Z,4.30
2018-05-13T10:41:11.049Z,4.33
2018-05-13T10:43:38.781Z,4.37
2018-05-13T10:46:06.370Z,4.20
2018-05-13T10:48:34.016Z,3.97
2018-05-13T10:51:01.774Z,4.13
2018-05-13T10:53:29.563Z,4.03
2018-05-13T10:55:57.088Z,3.97
2018-05-13T10:58:24.662Z,3.70
2018-05-13T11:00:52.598Z,3.50
2018-05-13T11:03:20.939Z,3.40
2018-05-13T11:05:49.475Z,3.60
2018-05-13T11:08:17.668Z,3.50
2018-05-13T11:10:45.348Z,3.70
2018-05-13T11:13:12.974Z,3.50
2018-05-13T11:15:41.328Z,4.00
2018-05-13T11:18:08.985Z,3.30
2018-05-13T11:20:37.891Z,3.57
2018-05-13T11:23:06.481Z,3.73
2018-05-13T11:25:34.132Z,3.60
2018-05-13T11:28:02.072Z,3.33
2018-05-13T11:30:30.977Z,4.03
2018-05-13T11:32:58.722Z,3.67
2018-05-13T11:35:26.410Z,3.43
2018-05-13T11:37:54.408Z,4.13
2018-05-13T11:40:22.724Z,3.43
2018-05-13T11:42:50.759Z,3.13
2018-05-13T11:45:18.786Z,3.20
2018-05-13T11:47:46.398Z,3.70
2018-05-13T11:50:14.268Z,2.80
2018-05-13T11:52:41.848Z,3.23
2018-05-13T11:55:09.379Z,3.20
2018-05-13T11:57:37.883Z,3.23
2018-05-13T12:00:05.451Z,3.40
2018-05-13T12:02:33.079Z,3.57
2018-05-13T12:05:00.586Z,3.23
2018-05-13T12:07:28.226Z,2.50
2018-05-13T12:09:55.783Z,2.70
2018-05-13T12:12:23.297Z,2.97
2018-05-13T12:14:51.328Z,2.80
2018-05-13T12:17:19.299Z,2.73
2018-05-13T12:19:47.462Z,2.90
2018-05-13T12:22:15.489Z,2.93
2018-05-13T12:24:43.104Z,3.13
2018-05-13T12:27:11.796Z,3.10
2018-05-13T12:29:39.624Z,3.37
2018-05-13T12:32:08.009Z,3.00
2018-05-13T12:34:35.595Z,3.10
2018-05-13T12:37:03.168Z,3.23
2018-05-13T12:39:30.861Z,3.40
2018-05-13T12:41:59.329Z,3.30
2018-05-13T12:44:26.961Z,3.23
2018-05-13T12:46:54.649Z,3.33
2018-05-13T12:49:22.222Z,3.00
2018-05-13T12:51:50.294Z,3.63
2018-05-13T12:54:18.096Z,3.30
2018-05-13T12:56:45.678Z,3.23
2018-05-13T12:59:14.471Z,3.50
2018-05-13T13:01:42.054Z,3.60
2018-05-13T13:04:09.875Z,3.13
2018-05-13T13:06:37.488Z,3.77
2018-05-13T13:09:05.257Z,3.80
2018-05-13T13:11:32.772Z,3.47
2018-05-13T13:14:00.282Z,2.90
2018-05-13T13:16:29.127Z,2.97
2018-05-13T13:18:56.621Z,3.07
2018-05-13T13:21:24.140Z,3.10
2018-05-13T13:23:51.772Z,3.53
2018-05-13T13:26:19.617Z,3.67
2018-05-13T13:28:47.805Z,3.50
2018-05-13T13:31:16.044Z,3.20
2018-05-13T13:33:43.609Z,3.27
2018-05-13T13:36:11.238Z,3.40
2018-05-13T13:38:38.770Z,3.13
2018-05-13T13:41:06.717Z,3.43
2018-05-13T13:43:34.233Z,3.83
2018-05-13T13:46:01.728Z,3.73
2018-05-13T13:48:29.463Z,4.47
2018-05-13T13:50:58.602Z,3.60
2018-05-13T13:53:26.393Z,3.90
2018-05-13T13:55:54.524Z,3.43
2018-05-13T13:58:22.064Z,3.30
2018-05-13T14:00:50.225Z,3.30
2018-05-13T14:03:17.788Z,3.30
2018-05-13T14:05:45.418Z,3.80
2018-05-13T14:08:13.059Z,3.60
2018-05-13T14:10:40.685Z,3.53
2018-05-13T14:13:09.172Z,3.73
2018-05-13T14:15:36.927Z,3.60
2018-05-13T14:18:04.692Z,3.63
2018-05-13T14:20:32.347Z,3.80
2018-05-13T14:23:00.013Z,4.00
2018-05-13T14:25:27.583Z,3.73
2018-05-13T14:27:55.173Z,3.63
2018-05-13T14:30:22.723Z,3.63
2018-05-13T14:32:50.336Z,4.03
2018-05-13T14:35:18.069Z,4.00
2018-05-13T14:37:45.610Z,3.97
2018-05-13T14:40:13.103Z,4.10
2018-05-13T14:42:41.447Z,4.17
2018-05-13T14:45:09.055Z,4.13
2018-05-13T14:47:36.594Z,3.57
2018-05-13T14:50:04.912Z,3.50
2018-05-13T14:52:32.793Z,4.10
2018-05-13T14:55:00.386Z,4.33
2018-05-13T14:57:28.536Z,3.70
2018-05-13T14:59:56.122Z,3.57
2018-05-13T15:02:23.738Z,4.03
2018-05-13T15:04:52.253Z,3.57
2018-05-13T15:07:31.643Z,4.17
2018-05-13T15:09:59.314Z,3.50
2018-05-13T15:12:27.308Z,3.80
2018-05-13T15:14:55.892Z,3.43
2018-05-13T15:17:23.672Z,3.97
2018-05-13T15:19:51.284Z,3.80
2018-05-13T15:22:18.923Z,3.70
2018-05-13T15:24:47.294Z,3.00
2018-05-13T15:27:14.870Z,3.73
2018-05-13T15:29:42.405Z,3.43
2018-05-13T15:32:09.976Z,3.80
2018-05-13T15:34:37.901Z,4.33
2018-05-13T15:37:05.437Z,3.80
2018-05-13T15:39:33.019Z,3.70
2018-05-13T15:42:00.988Z,3.20
2018-05-13T15:44:28.676Z,3.20
2018-05-13T15:46:56.815Z,3.90
2018-05-13T15:49:24.935Z,3.30
2018-05-13T15:51:52.470Z,3.33
2018-05-13T15:54:20.112Z,3.37
2018-05-13T15:56:48.003Z,3.17
2018-05-13T15:59:16.165Z,3.10
2018-05-13T16:01:43.836Z,3.23
2018-05-13T16:04:11.473Z,3.13
2018-05-13T16:06:39.477Z,3.43
2018-05-13T16:09:07.035Z,3.37
2018-05-13T16:11:34.637Z,2.90
2018-05-13T16:14:02.229Z,3.30
2018-05-13T16:16:29.846Z,3.20
2018-05-13T16:18:57.544Z,3.43
2018-05-13T16:21:26.381Z,2.93
2018-05-13T16:23:53.956Z,3.17
2018-05-13T16:26:21.535Z,3.50
2018-05-13T16:28:49.811Z,2.93
2018-05-13T16:31:18.237Z,3.03
2018-05-13T16:33:45.976Z,2.97
2018-05-13T16:36:13.584Z,3.53
2018-05-13T16:38:41.331Z,3.03
2018-05-13T16:41:08.912Z,3.37
2018-05-13T16:43:36.566Z,3.20
2018-05-13T16:46:04.091Z,3.40
2018-05-13T16:48:31.673Z,3.70
2018-05-13T16:50:59.227Z,3.67
2018-05-13T16:53:26.887Z,3.43
2018-05-13T16:55:54.460Z,3.30
2018-05-13T16:58:22.006Z,3.43
2018-05-13T17:00:49.601Z,3.63
2018-05-13T17:03:18.523Z,2.80
2018-05-13T17:05:46.843Z,3.60
2018-05-13T17:08:14.373Z,3.13
2018-05-13T17:10:42.062Z,3.53
2018-05-13T17:13:10.241Z,3.37
2018-05-13T17:15:37.987Z,4.07
2018-05-13T17:18:05.574Z,5.40
2018-05-13T17:20:33.724Z,3.33
2018-05-13T17:23:01.297Z,3.30
2018-05-13T17:25:28.810Z,2.63
2018-05-13T17:27:57.410Z,3.07
2018-05-13T17:30:25.413Z,3.53
2018-05-13T17:32:53.484Z,3.37
2018-05-13T17:35:21.688Z,2.80
2018-05-13T17:37:49.237Z,2.87
2018-05-13T17:40:17.101Z,3.83
2018-05-13T17:42:45.458Z,3.30
2018-05-13T17:47:47.193Z,3.93
2018-05-13T17:50:15.617Z,3.70
2018-05-13T17:52:43.139Z,3.70
2018-05-13T17:55:10.689Z,3.37
2018-05-13T17:57:38.437Z,3.57
2018-05-13T18:00:05.923Z,3.80
2018-05-13T18:02:34.193Z,3.50
2018-05-13T18:05:01.755Z,3.80
2018-05-13T18:07:30.075Z,3.40
2018-05-13T18:09:57.676Z,3.20
2018-05-13T18:12:25.225Z,3.53
2018-05-13T18:14:52.823Z,3.40
2018-05-13T18:17:21.278Z,3.40
2018-05-13T18:19:49.009Z,3.27
2018-05-13T18:22:16.566Z,3.23
2018-05-13T18:24:44.145Z,3.83
2018-05-13T18:27:11.616Z,3.70
2018-05-13T18:29:39.254Z,3.30
2018-05-13T18:32:06.929Z,3.47
2018-05-13T18:34:34.799Z,3.80
2018-05-13T18:37:02.833Z,4.07
2018-05-13T18:39:31.220Z,3.90
2018-05-13T18:41:58.896Z,3.67
2018-05-13T18:44:26.499Z,3.20
2018-05-13T18:46:53.977Z,3.47
2018-05-13T18:49:21.756Z,3.90
2018-05-13T18:51:49.411Z,3.70
2018-05-13T18:54:17.403Z,3.90
2018-05-13T18:56:45.128Z,3.93
2018-05-13T18:59:13.043Z,4.27
2018-05-13T19:01:40.589Z,4.03
2018-05-13T19:04:08.174Z,4.00
2018-05-13T19:06:36.448Z,4.40
2018-05-13T19:09:04.203Z,4.07
2018-05-13T19:11:31.790Z,4.33
2018-05-13T19:13:59.344Z,4.23
2018-05-13T19:16:27.098Z,4.27
2018-05-13T19:18:54.713Z,3.77
2018-05-13T19:21:22.606Z,4.57
2018-05-13T19:23:50.215Z,4.60
2018-05-13T19:26:17.813Z,4.10
2018-05-13T19:28:46.115Z,4.13
2018-05-13T19:31:14.300Z,4.00
2018-05-13T19:33:41.872Z,4.27
2018-05-13T19:36:09.566Z,4.13
2018-05-13T19:38:37.271Z,4.20
2018-05-13T19:41:04.841Z,4.13
2018-05-13T19:43:32.455Z,4.17
2018-05-13T19:46:01.658Z,4.27
2018-05-13T19:48:30.482Z,4.23
2018-05-13T19:50:58.697Z,4.53
2018-05-13T19:53:26.390Z,4.13
2018-05-13T19:55:54.762Z,4.07
2018-05-13T19:58:22.305Z,3.93
2018-05-13T20:00:49.971Z,4.07
2018-05-13T20:03:18.386Z,4.30
2018-05-13T20:05:46.529Z,4.47
2018-05-13T20:08:15.090Z,4.37
2018-05-13T20:10:42.711Z,4.33
2018-05-13T20:13:10.278Z,4.70
2018-05-13T20:15:38.778Z,4.40
2018-05-13T20:18:06.526Z,4.10
2018-05-13T20:20:34.088Z,4.63
2018-05-13T20:23:14.754Z,4.17
2018-05-13T20:25:42.357Z,4.23
2018-05-13T20:28:09.862Z,4.53
2018-05-13T20:30:37.403Z,4.47
2018-05-13T20:33:05.079Z,4.30
2018-05-13T20:35:32.802Z,4.57
2018-05-13T20:38:00.450Z,4.30
2018-05-13T20:40:28.011Z,4.53
2018-05-13T20:42:55.570Z,5.13
2018-05-13T20:45:23.405Z,4.20
2018-05-13T20:47:50.967Z,4.97
2018-05-13T20:50:18.603Z,4.20
2018-05-13T20:52:46.584Z,14.90
2018-05-13T20:55:14.103Z,4.53
2018-05-13T20:57:41.701Z,4.10
2018-05-13T21:00:09.189Z,4.27
2018-05-13T21:02:38.255Z,4.10
2018-05-13T21:05:06.523Z,4.27
2018-05-13T21:07:35.233Z,4.17
2018-05-13T21:10:02.781Z,4.03
2018-05-13T21:12:30.391Z,4.20
2018-05-13T21:14:58.270Z,4.17
2018-05-13T21:17:25.803Z,4.73
2018-05-13T21:19:53.642Z,4.30
2018-05-13T21:22:21.284Z,5.13
2018-05-13T21:24:48.852Z,4.50
2018-05-13T21:27:16.645Z,4.93
2018-05-13T21:29:44.150Z,4.80
2018-05-13T21:32:13.348Z,4.20
2018-05-13T21:34:41.955Z,4.47
2018-05-13T21:37:09.548Z,4.37
2018-05-13T21:39:37.931Z,4.57
2018-05-13T21:42:05.471Z,5.10
2018-05-13T21:44:33.026Z,4.67
2018-05-13T21:47:00.849Z,4.40
2018-05-13T21:49:28.376Z,4.27
2018-05-13T21:51:56.195Z,4.43
2018-05-13T21:54:23.826Z,4.20
2018-05-13T21:56:51.368Z,4.10
2018-05-13T21:59:19.436Z,4.37
2018-05-13T22:01:46.987Z,4.73
2018-05-13T22:04:14.491Z,4.40
2018-05-13T22:06:42.943Z,4.10
2018-05-13T22:09:12.380Z,4.57
2018-05-13T22:11:40.283Z,4.80
2018-05-13T22:14:07.856Z,4.10
2018-05-13T22:16:35.576Z,4.23
2018-05-13T22:19:04.068Z,4.63
2018-05-13T22:21:32.364Z,4.87
2018-05-13T22:23:59.922Z,4.80
2018-05-13T22:26:27.443Z,5.37
2018-05-13T22:28:54.966Z,3.93
2018-05-13T22:31:22.515Z,4.30
2018-05-13T22:33:50.075Z,4.20
2018-05-13T22:36:18.260Z,4.73
2018-05-13T22:38:45.810Z,4.30
2018-05-13T22:41:13.590Z,4.67
2018-05-13T22:43:41.212Z,4.77
2018-05-13T22:46:09.091Z,4.30
2018-05-13T22:48:37.521Z,4.20
2018-05-13T22:51:05.198Z,3.60
2018-05-13T22:53:32.794Z,5.20
2018-05-13T22:56:00.308Z,3.70
2018-05-13T22:58:27.875Z,4.27
2018-05-13T23:00:55.369Z,4.47
2018-05-13T23:03:23.780Z,4.50
2018-05-13T23:05:51.455Z,4.50
2018-05-13T23:08:19.570Z,4.20
2018-05-13T23:10:47.271Z,4.50
2018-05-13T23:13:15.305Z,4.27
2018-05-13T23:15:42.808Z,4.30
2018-05-13T23:18:10.341Z,3.77
2018-05-13T23:20:37.963Z,4.20
2018-05-13T23:23:06.187Z,5.00
2018-05-13T23:25:33.862Z,3.93
2018-05-13T23:28:01.378Z,4.60
2018-05-13T23:30:28.944Z,4.63
2018-05-13T23:32:56.466Z,4.20
2018-05-13T23:35:24.058Z,4.27
2018-05-13T23:37:51.571Z,4.30
2018-05-13T23:40:19.176Z,4.93
2018-05-13T23:42:47.679Z,4.50
2018-05-13T23:45:16.465Z,4.30
2018-05-13T23:47:43.985Z,4.53
2018-05-13T23:50:11.668Z,4.30
2018-05-13T23:52:39.295Z,4.70
2018-05-13T23:55:07.155Z,4.30
2018-05-13T23:57:34.675Z,3.47
